Time;durP1;ratioP1;P1;durP2;ratioP2;P2;SDS_P1;SDS_P2;PMS_P1;PMS_P2;Temp;Humidity;BMP_temperature;BMP_pressure;BME280_temperature;BME280_humidity;BME280_pressure;Samples;Min_cycle;Max_cycle;Signal;HPM_P1;HPM_P2
2023/02/17 00:02:19;;;;;;;21.17;16.17;;;;;;;;;;6154181;23;20017;-89
2023/02/17 00:04:46;;;;;;;19.17;15.98;;;;;;;;;;6127305;23;20021;-89
2023/02/17 00:07:15;;;;;;;19.35;16.83;;;;;;;;;;6154382;23;20013;-90
2023/02/17 00:09:42;;;;;;;20.67;14.98;;;;;;;;;;6153931;23;20009;-89
2023/02/17 00:12:10;;;;;;;16.50;12.93;;;;;;;;;;6151189;23;20354;-89
2023/02/17 00:14:39;;;;;;;23.30;15.20;;;;;;;;;;6153825;23;20025;-89
2023/02/17 00:17:06;;;;;;;22.70;16.00;;;;;;;;;;6128181;23;20021;-90
2023/02/17 00:19:34;;;;;;;20.13;13.02;;;;;;;;;;6126723;23;20018;-90
2023/02/17 00:22:02;;;;;;;16.42;12.05;;;;;;;;;;6151380;23;20358;-90
2023/02/17 00:24:30;;;;;;;14.60;11.40;;;;;;;;;;6153594;23;20044;-84
2023/02/17 00:26:59;;;;;;;14.40;12.18;;;;;;;;;;6192706;23;20017;-85
2023/02/17 00:29:26;;;;;;;12.82;10.95;;;;;;;;;;6132042;23;20014;-85
2023/02/17 00:31:54;;;;;;;14.27;12.15;;;;;;;;;;6155064;23;20017;-85
2023/02/17 00:34:24;;;;;;;13.27;10.20;;;;;;;;;;6155504;23;20373;-85
2023/02/17 00:36:52;;;;;;;13.82;12.32;;;;;;;;;;6156174;23;20020;-86
2023/02/17 00:39:22;;;;;;;13.38;10.20;;;;;;;;;;6156574;23;20032;-85
2023/02/17 00:41:51;;;;;;;13.30;9.70;;;;;;;;;;6131314;23;20017;-86
2023/02/17 00:44:22;;;;;;;13.00;11.18;;;;;;;;;;6157490;23;20028;-86
2023/02/17 00:46:52;;;;;;;16.05;9.27;;;;;;;;;;6192066;23;20449;-85
2023/02/17 00:49:22;;;;;;;12.48;9.18;;;;;;;;;;6132732;23;20469;-85
2023/02/17 00:51:50;;;;;;;12.15;9.55;;;;;;;;;;6181933;23;20457;-85
2023/02/17 00:54:18;;;;;;;13.55;8.75;;;;;;;;;;6132966;23;20017;-85
2023/02/17 00:56:47;;;;;;;13.95;10.50;;;;;;;;;;6156678;23;20100;-85
2023/02/17 00:59:14;;;;;;;12.65;8.00;;;;;;;;;;6157343;23;20352;-85
2023/02/17 01:01:43;;;;;;;16.48;9.25;;;;;;;;;;6157148;23;20472;-85
2023/02/17 01:04:10;;;;;;;13.90;10.15;;;;;;;;;;6156913;23;20028;-86
2023/02/17 01:06:40;;;;;;;11.98;9.93;;;;;;;;;;6155380;23;20037;-85
2023/02/17 01:09:09;;;;;;;17.88;10.93;;;;;;;;;;6156743;23;20009;-85
2023/02/17 01:11:36;;;;;;;14.23;8.63;;;;;;;;;;6184174;23;20013;-86
2023/02/17 01:14:06;;;;;;;12.98;9.40;;;;;;;;;;6184183;23;20020;-85
2023/02/17 01:16:34;;;;;;;10.77;9.38;;;;;;;;;;6132779;23;20028;-85
2023/02/17 01:19:05;;;;;;;12.43;9.20;;;;;;;;;;6158748;23;20353;-85
2023/02/17 01:21:32;;;;;;;16.80;9.43;;;;;;;;;;6142689;23;20007;-86
2023/02/17 01:24:01;;;;;;;11.00;8.80;;;;;;;;;;6169188;23;20013;-85
2023/02/17 01:26:32;;;;;;;12.75;9.93;;;;;;;;;;6156659;23;20479;-85
2023/02/17 01:29:02;;;;;;;10.85;8.35;;;;;;;;;;6130960;23;20059;-85
2023/02/17 01:31:29;;;;;;;10.75;8.77;;;;;;;;;;6193269;23;20013;-85
2023/02/17 01:33:59;;;;;;;9.48;8.32;;;;;;;;;;6156231;23;20013;-86
2023/02/17 01:36:30;;;;;;;11.88;9.40;;;;;;;;;;6157347;23;20345;-86
2023/02/17 01:39:00;;;;;;;13.90;8.32;;;;;;;;;;6166731;23;20013;-85
2023/02/17 01:41:28;;;;;;;11.27;9.02;;;;;;;;;;6131048;23;20017;-85
2023/02/17 01:44:13;;;;;;;10.90;8.45;;;;;;;;;;6156257;23;20499;-85
2023/02/17 01:46:44;;;;;;;8.77;7.65;;;;;;;;;;6131559;23;20488;-86
2023/02/17 01:49:21;;;;;;;10.45;8.18;;;;;;;;;;6167217;23;20010;-85
2023/02/17 01:51:56;;;;;;;13.68;7.32;;;;;;;;;;6166439;23;20013;-85
2023/02/17 01:54:27;;;;;;;10.02;6.68;;;;;;;;;;6190097;23;20456;-86
2023/02/17 01:56:56;;;;;;;10.65;7.18;;;;;;;;;;6155308;23;20020;-85
2023/02/17 01:59:23;;;;;;;7.38;6.68;;;;;;;;;;6155625;23;20749;-85
2023/02/17 02:01:53;;;;;;;11.20;6.90;;;;;;;;;;6131572;23;20035;-85
2023/02/17 02:04:22;;;;;;;7.75;6.30;;;;;;;;;;6182346;23;20017;-85
2023/02/17 02:06:50;;;;;;;9.18;7.63;;;;;;;;;;6155018;23;20017;-85
2023/02/17 02:09:21;;;;;;;8.68;6.45;;;;;;;;;;6132552;23;20013;-85
2023/02/17 02:11:49;;;;;;;11.15;7.78;;;;;;;;;;6167991;23;20013;-85
2023/02/17 02:14:17;;;;;;;10.25;6.72;;;;;;;;;;6158073;23;20353;-86
2023/02/17 02:16:49;;;;;;;11.80;7.07;;;;;;;;;;6157778;23;20013;-85
2023/02/17 02:19:52;;;;;;;10.30;7.28;;;;;;;;;;6133471;23;20017;-85
2023/02/17 02:22:40;;;;;;;12.38;7.97;;;;;;;;;;6075300;23;20019;-86
2023/02/17 02:25:29;;;;;;;12.38;7.13;;;;;;;;;;6133827;23;20025;-85
2023/02/17 02:28:06;;;;;;;11.98;6.43;;;;;;;;;;6193009;23;20017;-85
2023/02/17 02:30:59;;;;;;;8.98;6.93;;;;;;;;;;6133105;23;20017;-85
2023/02/17 02:33:33;;;;;;;11.40;6.20;;;;;;;;;;6193810;23;20013;-86
2023/02/17 02:36:03;;;;;;;12.65;6.35;;;;;;;;;;6160519;23;20017;-85
2023/02/17 02:38:37;;;;;;;11.27;5.80;;;;;;;;;;6168003;23;20040;-85
2023/02/17 02:41:09;;;;;;;12.20;6.10;;;;;;;;;;6132767;23;20017;-85
2023/02/17 02:43:41;;;;;;;12.38;5.45;;;;;;;;;;6164513;23;20025;-85
2023/02/17 02:46:09;;;;;;;11.23;6.90;;;;;;;;;;6156870;23;20013;-85
2023/02/17 02:48:37;;;;;;;7.97;6.38;;;;;;;;;;6157944;23;20028;-85
2023/02/17 02:51:30;;;;;;;9.02;6.18;;;;;;;;;;6157834;23;20341;-85
2023/02/17 02:54:19;;;;;;;9.32;5.82;;;;;;;;;;6146453;23;20021;-86
2023/02/17 02:56:59;;;;;;;14.40;6.13;;;;;;;;;;6121861;23;20024;-85
2023/02/17 02:59:37;;;;;;;12.35;7.55;;;;;;;;;;6156365;23;20017;-86
2023/02/17 03:02:08;;;;;;;9.80;7.15;;;;;;;;;;6133106;23;20017;-86
2023/02/17 03:04:41;;;;;;;9.57;5.28;;;;;;;;;;6132874;23;20040;-86
2023/02/17 03:07:20;;;;;;;9.70;5.70;;;;;;;;;;6167871;23;20036;-86
2023/02/17 03:09:51;;;;;;;10.38;8.77;;;;;;;;;;6158466;23;20484;-85
2023/02/17 03:12:19;;;;;;;8.30;5.18;;;;;;;;;;6132039;23;20032;-86
2023/02/17 03:14:52;;;;;;;8.55;5.50;;;;;;;;;;6133127;23;20021;-86
2023/02/17 03:17:19;;;;;;;7.03;5.93;;;;;;;;;;6132534;23;20017;-86
2023/02/17 03:19:54;;;;;;;11.15;6.53;;;;;;;;;;6134522;23;20020;-85
2023/02/17 03:22:22;;;;;;;8.45;6.45;;;;;;;;;;6155649;23;20028;-85
2023/02/17 03:24:50;;;;;;;8.90;5.47;;;;;;;;;;6157960;23;20017;-86
2023/02/17 03:27:17;;;;;;;11.07;7.53;;;;;;;;;;6166612;23;20020;-86
2023/02/17 03:29:44;;;;;;;8.55;5.82;;;;;;;;;;6132490;23;20024;-86
2023/02/17 03:32:12;;;;;;;11.90;5.63;;;;;;;;;;6183366;23;20017;-86
2023/02/17 03:34:39;;;;;;;10.57;5.90;;;;;;;;;;6184268;23;20020;-86
2023/02/17 03:37:07;;;;;;;8.60;6.30;;;;;;;;;;6183303;23;20017;-86
2023/02/17 03:39:35;;;;;;;8.75;5.45;;;;;;;;;;6158159;23;20322;-86
2023/02/17 03:42:04;;;;;;;7.03;5.43;;;;;;;;;;6183236;23;20048;-85
2023/02/17 03:44:31;;;;;;;7.35;5.50;;;;;;;;;;6132376;23;20021;-86
2023/02/17 03:46:59;;;;;;;10.52;5.35;;;;;;;;;;6154463;23;20013;-86
2023/02/17 03:49:26;;;;;;;10.07;5.55;;;;;;;;;;6184635;23;20345;-86
2023/02/17 03:51:53;;;;;;;14.90;4.82;;;;;;;;;;6157459;23;20017;-86
2023/02/17 03:54:22;;;;;;;7.90;5.38;;;;;;;;;;6157642;23;20017;-85
2023/02/17 03:56:49;;;;;;;9.68;7.03;;;;;;;;;;6181801;23;20017;-86
2023/02/17 03:59:16;;;;;;;7.25;5.30;;;;;;;;;;6192541;23;20357;-85
2023/02/17 04:01:43;;;;;;;12.13;6.63;;;;;;;;;;6157218;23;20017;-86
2023/02/17 04:04:11;;;;;;;9.07;5.72;;;;;;;;;;6156702;23;20488;-86
2023/02/17 04:06:38;;;;;;;7.40;6.03;;;;;;;;;;6156404;23;20017;-85
2023/02/17 04:09:05;;;;;;;7.53;5.47;;;;;;;;;;6157875;23;20032;-86
2023/02/17 04:11:36;;;;;;;6.85;5.32;;;;;;;;;;6130918;23;20013;-86
2023/02/17 04:14:06;;;;;;;7.38;5.28;;;;;;;;;;6157508;23;20028;-86
2023/02/17 04:16:33;;;;;;;9.35;5.97;;;;;;;;;;6156991;23;20013;-86
2023/02/17 04:19:00;;;;;;;9.75;5.05;;;;;;;;;;6156479;23;20024;-86
2023/02/17 04:21:28;;;;;;;8.57;5.10;;;;;;;;;;6134361;23;20017;-86
2023/02/17 04:23:59;;;;;;;6.15;4.93;;;;;;;;;;6160357;23;20472;-86
2023/02/17 04:26:26;;;;;;;6.88;5.28;;;;;;;;;;6163306;23;20020;-85
2023/02/17 04:28:55;;;;;;;6.18;4.43;;;;;;;;;;6190704;23;20017;-86
2023/02/17 04:31:22;;;;;;;8.73;4.78;;;;;;;;;;6136548;23;20017;-86
2023/02/17 04:33:50;;;;;;;8.50;6.20;;;;;;;;;;6181840;23;20028;-85
2023/02/17 04:36:18;;;;;;;7.57;4.35;;;;;;;;;;6182308;23;20013;-85
2023/02/17 04:38:48;;;;;;;10.05;4.88;;;;;;;;;;6183256;23;20028;-85
2023/02/17 04:41:15;;;;;;;9.25;4.72;;;;;;;;;;6183383;23;20467;-85
2023/02/17 04:43:42;;;;;;;6.38;4.93;;;;;;;;;;6130059;23;20024;-85
2023/02/17 04:46:13;;;;;;;12.07;5.70;;;;;;;;;;6155899;23;20021;-85
2023/02/17 04:48:43;;;;;;;8.88;4.72;;;;;;;;;;6167514;23;20013;-85
2023/02/17 04:51:10;;;;;;;8.32;5.30;;;;;;;;;;6154208;23;20035;-85
2023/02/17 04:53:37;;;;;;;11.20;6.47;;;;;;;;;;6183500;23;20501;-86
2023/02/17 04:56:07;;;;;;;12.05;5.38;;;;;;;;;;6131986;23;20028;-85
2023/02/17 04:58:36;;;;;;;10.48;5.78;;;;;;;;;;6156938;23;20020;-85
2023/02/17 05:01:06;;;;;;;7.22;5.25;;;;;;;;;;6182330;23;20020;-84
2023/02/17 05:03:35;;;;;;;9.05;5.35;;;;;;;;;;6157249;23;20349;-85
2023/02/17 05:06:02;;;;;;;7.38;4.70;;;;;;;;;;6183125;23;20013;-85
2023/02/17 05:08:31;;;;;;;9.27;6.25;;;;;;;;;;6157538;23;20017;-85
2023/02/17 05:11:01;;;;;;;7.97;5.85;;;;;;;;;;6132072;23;20024;-86
2023/02/17 05:13:28;;;;;;;6.20;5.18;;;;;;;;;;6183589;23;20016;-85
2023/02/17 05:15:55;;;;;;;9.07;5.90;;;;;;;;;;6182778;23;20010;-86
2023/02/17 05:18:23;;;;;;;11.75;5.50;;;;;;;;;;6155578;23;20353;-85
2023/02/17 05:20:54;;;;;;;5.40;4.30;;;;;;;;;;6156295;23;20028;-86
2023/02/17 05:23:24;;;;;;;9.25;4.95;;;;;;;;;;6192508;23;20020;-86
2023/02/17 05:25:51;;;;;;;6.45;5.07;;;;;;;;;;6154809;23;20017;-86
2023/02/17 05:28:18;;;;;;;6.03;4.85;;;;;;;;;;6154939;23;20028;-87
2023/02/17 05:30:48;;;;;;;6.65;5.25;;;;;;;;;;6150619;23;20024;-86
2023/02/17 05:33:15;;;;;;;10.68;5.72;;;;;;;;;;6157164;23;20365;-86
2023/02/17 05:35:42;;;;;;;9.48;5.25;;;;;;;;;;6155045;23;20349;-86
2023/02/17 05:38:11;;;;;;;8.00;4.90;;;;;;;;;;6156204;23;20020;-86
2023/02/17 05:40:40;;;;;;;7.10;4.75;;;;;;;;;;6192395;23;20024;-86
2023/02/17 05:43:08;;;;;;;8.88;5.07;;;;;;;;;;6177023;23;20020;-86
2023/02/17 05:45:37;;;;;;;8.10;6.15;;;;;;;;;;6174844;23;20024;-86
2023/02/17 05:48:07;;;;;;;9.00;6.20;;;;;;;;;;6124637;23;20025;-86
2023/02/17 05:50:34;;;;;;;6.85;5.63;;;;;;;;;;6151990;23;20017;-86
2023/02/17 05:53:05;;;;;;;6.43;4.53;;;;;;;;;;6149577;23;20356;-85
2023/02/17 05:55:34;;;;;;;7.35;5.50;;;;;;;;;;6150542;23;20013;-86
2023/02/17 05:58:01;;;;;;;7.57;5.72;;;;;;;;;;6123665;23;20491;-86
2023/02/17 06:00:28;;;;;;;7.63;4.72;;;;;;;;;;6149153;23;20021;-86
2023/02/17 06:02:55;;;;;;;7.30;4.57;;;;;;;;;;6124571;23;20028;-86
2023/02/17 06:05:22;;;;;;;12.20;5.53;;;;;;;;;;6148786;23;20017;-86
2023/02/17 06:07:52;;;;;;;9.20;4.88;;;;;;;;;;6175557;23;20021;-87
2023/02/17 06:10:22;;;;;;;7.50;4.38;;;;;;;;;;6175624;23;20020;-87
2023/02/17 06:12:53;;;;;;;6.65;5.43;;;;;;;;;;6158670;23;20009;-87
2023/02/17 06:15:20;;;;;;;7.15;4.50;;;;;;;;;;6156383;23;20330;-86
2023/02/17 06:17:47;;;;;;;9.93;5.07;;;;;;;;;;6182649;23;20483;-87
2023/02/17 06:20:15;;;;;;;7.47;4.85;;;;;;;;;;6184545;23;20013;-87
2023/02/17 06:22:42;;;;;;;10.20;6.32;;;;;;;;;;6157430;23;20013;-87
2023/02/17 06:25:12;;;;;;;7.90;5.50;;;;;;;;;;6132272;23;20214;-89
2023/02/17 06:27:40;;;;;;;9.23;5.05;;;;;;;;;;6193705;23;20020;-89
2023/02/17 06:30:11;;;;;;;5.88;4.20;;;;;;;;;;6183830;23;20069;-88
2023/02/17 06:32:38;;;;;;;10.10;4.25;;;;;;;;;;6158345;23;20475;-90
2023/02/17 06:35:06;;;;;;;6.82;4.53;;;;;;;;;;6185236;23;20021;-89
2023/02/17 06:37:33;;;;;;;9.45;5.20;;;;;;;;;;6194292;23;20013;-91
2023/02/17 06:40:01;;;;;;;11.30;6.00;;;;;;;;;;6159473;23;20013;-90
2023/02/17 06:42:28;;;;;;;6.10;5.03;;;;;;;;;;6193937;23;20013;-90
2023/02/17 06:44:56;;;;;;;5.80;4.22;;;;;;;;;;6183968;23;20013;-91
2023/02/17 10:10:54;;;;;;;4.43;3.17;;;;;;;;;;6180947;23;20024;-90
2023/02/17 10:13:23;;;;;;;7.18;4.13;;;;;;;;;;6192919;23;20017;-90
2023/02/17 10:15:52;;;;;;;4.07;3.67;;;;;;;;;;6181804;23;20350;-91
2023/02/17 16:41:07;;;;;;;6.20;4.40;;;;;;;;;;5863382;24;20264;-87
2023/02/17 16:51:43;;;;;;;;;;;;;;;;;;;;;
2023/02/17 16:59:12;;;;;;;6.38;5.50;;;;;;;;;;6156576;23;20373;-89
2023/02/17 17:32:11;;;;;;;;;;;;;;;;;;;;;
2023/02/17 17:48:45;;;;;;;9.63;5.55;;;;;;;;;;5025208;28;20789;-87
2023/02/17 17:51:13;;;;;;;7.63;5.65;;;;;;;;;;5034488;28;20076;-87
2023/02/17 17:53:41;;;;;;;7.10;6.07;;;;;;;;;;5038050;28;20064;-87
2023/02/17 17:56:13;;;;;;;10.00;6.70;;;;;;;;;;5027305;28;20054;-86
2023/02/17 17:58:40;;;;;;;13.90;10.05;;;;;;;;;;5026578;28;20052;-86
2023/02/17 18:01:08;;;;;;;6.10;5.38;;;;;;;;;;5035582;28;20064;-87
2023/02/17 18:03:35;;;;;;;6.25;4.63;;;;;;;;;;5036805;28;20056;-87
2023/02/17 18:06:04;;;;;;;9.45;5.13;;;;;;;;;;5017470;28;20065;-87
2023/02/17 18:08:31;;;;;;;8.65;5.53;;;;;;;;;;5023300;28;20052;-87
2023/02/17 18:10:59;;;;;;;6.88;5.68;;;;;;;;;;5023596;28;20046;-86
2023/02/17 18:13:26;;;;;;;6.80;5.25;;;;;;;;;;5031713;28;20080;-86
2023/02/17 18:15:56;;;;;;;7.72;5.32;;;;;;;;;;5024168;28;20046;-87
2023/02/17 18:18:28;;;;;;;6.90;5.35;;;;;;;;;;5023587;28;20046;-87
2023/02/17 18:20:55;;;;;;;10.75;4.93;;;;;;;;;;5034508;28;20436;-86
2023/02/17 18:23:24;;;;;;;6.85;4.90;;;;;;;;;;5017936;28;20065;-87
2023/02/17 18:25:51;;;;;;;6.82;5.45;;;;;;;;;;5038688;23;20026;-88
2023/02/17 18:28:18;;;;;;;11.48;5.68;;;;;;;;;;5013913;28;20049;-88
2023/02/17 18:30:45;;;;;;;8.55;6.43;;;;;;;;;;5031104;28;20405;-88
2023/02/17 18:33:13;;;;;;;9.52;5.50;;;;;;;;;;5040166;28;20053;-87
2023/02/17 18:35:42;;;;;;;7.80;6.43;;;;;;;;;;5011644;28;20050;-88
2023/02/17 18:38:09;;;;;;;7.70;5.95;;;;;;;;;;5009882;28;20049;-87
2023/02/17 18:40:40;;;;;;;10.38;5.82;;;;;;;;;;4996024;28;20633;-88
2023/02/17 18:43:07;;;;;;;5.80;4.40;;;;;;;;;;4987860;28;20065;-88
2023/02/17 18:45:35;;;;;;;6.70;5.40;;;;;;;;;;4996548;28;20751;-88
2023/02/17 18:48:02;;;;;;;6.57;5.18;;;;;;;;;;4994795;28;20041;-88
2023/02/17 18:50:31;;;;;;;8.18;5.68;;;;;;;;;;4991028;28;20062;-88
2023/02/17 18:52:59;;;;;;;6.95;5.80;;;;;;;;;;4960237;28;20047;-88
2023/02/17 18:55:28;;;;;;;6.93;5.35;;;;;;;;;;4976644;28;20490;-87
2023/02/17 18:57:57;;;;;;;9.30;6.20;;;;;;;;;;4976851;28;20051;-89
2023/02/17 19:00:25;;;;;;;6.50;5.90;;;;;;;;;;4959910;28;20064;-89
2023/02/17 19:02:52;;;;;;;7.05;5.15;;;;;;;;;;4960653;28;20405;-88
2023/02/17 19:05:20;;;;;;;7.72;5.38;;;;;;;;;;4964500;28;20058;-89
2023/02/17 19:07:48;;;;;;;7.43;5.22;;;;;;;;;;4978321;28;20042;-88
2023/02/17 19:10:16;;;;;;;8.75;5.13;;;;;;;;;;4978390;28;20536;-88
2023/02/17 19:12:43;;;;;;;9.68;5.88;;;;;;;;;;4947196;28;20422;-89
2023/02/17 19:15:15;;;;;;;11.20;6.38;;;;;;;;;;4946451;28;20347;-88
2023/02/17 19:17:44;;;;;;;8.65;5.45;;;;;;;;;;4959561;28;20042;-88
2023/02/17 19:20:12;;;;;;;8.13;5.55;;;;;;;;;;4981169;28;20059;-88
2023/02/17 19:22:40;;;;;;;7.18;5.35;;;;;;;;;;4942264;28;20057;-89
2023/02/17 19:25:08;;;;;;;7.03;5.28;;;;;;;;;;4960400;28;20061;-88
2023/02/17 19:27:35;;;;;;;6.88;5.60;;;;;;;;;;4978750;28;20069;-88
2023/02/17 19:30:03;;;;;;;6.55;4.35;;;;;;;;;;4960228;28;21556;-88
2023/02/17 19:32:32;;;;;;;8.73;4.68;;;;;;;;;;4978188;28;20421;-88
2023/02/17 19:34:59;;;;;;;8.05;4.85;;;;;;;;;;4962488;28;20042;-89
2023/02/17 19:37:27;;;;;;;7.55;5.75;;;;;;;;;;4961032;28;20046;-88
2023/02/17 19:39:54;;;;;;;5.35;4.55;;;;;;;;;;4958741;28;20513;-88
2023/02/17 19:42:22;;;;;;;8.48;5.10;;;;;;;;;;4941993;28;20217;-87
2023/02/17 19:44:52;;;;;;;5.65;4.50;;;;;;;;;;4977999;28;22721;-89
2023/02/17 19:47:19;;;;;;;5.95;4.65;;;;;;;;;;4980071;28;20046;-88
2023/02/17 19:49:48;;;;;;;5.10;4.40;;;;;;;;;;4959026;28;20410;-88
2023/02/17 19:52:15;;;;;;;10.40;5.97;;;;;;;;;;4962231;28;20074;-88
2023/02/17 19:54:43;;;;;;;5.55;4.95;;;;;;;;;;4978539;28;20481;-89
2023/02/17 19:57:10;;;;;;;7.13;5.53;;;;;;;;;;4977888;28;20046;-88
2023/02/17 19:59:37;;;;;;;7.78;4.45;;;;;;;;;;4958422;28;20384;-88
2023/02/17 20:02:05;;;;;;;9.30;5.57;;;;;;;;;;4980479;28;20047;-88
2023/02/17 20:04:32;;;;;;;7.03;5.38;;;;;;;;;;4974436;28;20414;-88
2023/02/17 20:07:01;;;;;;;8.48;5.03;;;;;;;;;;4978892;28;20437;-87
2023/02/17 20:09:28;;;;;;;7.93;5.95;;;;;;;;;;4977052;28;20054;-88
2023/02/17 20:11:56;;;;;;;7.30;5.05;;;;;;;;;;4976837;28;20050;-89
2023/02/17 20:14:23;;;;;;;5.95;4.57;;;;;;;;;;4978447;28;20556;-88
2023/02/17 20:16:52;;;;;;;6.45;4.05;;;;;;;;;;4978812;28;20668;-87
2023/02/17 20:19:19;;;;;;;5.43;4.00;;;;;;;;;;4956739;28;20046;-88
2023/02/17 20:21:46;;;;;;;5.88;5.10;;;;;;;;;;4959930;28;20498;-88
2023/02/17 20:24:15;;;;;;;8.20;6.07;;;;;;;;;;4977399;28;20501;-88
2023/02/17 20:26:44;;;;;;;6.95;4.68;;;;;;;;;;4959351;28;20616;-87
2023/02/17 20:29:12;;;;;;;5.32;4.30;;;;;;;;;;4975660;28;20065;-87
2023/02/17 20:31:40;;;;;;;6.18;4.80;;;;;;;;;;4961264;28;20635;-88
2023/02/17 20:34:09;;;;;;;8.77;4.63;;;;;;;;;;4972288;28;20062;-88
2023/02/17 20:36:36;;;;;;;7.32;4.05;;;;;;;;;;4957765;28;20676;-87
2023/02/17 20:39:04;;;;;;;4.35;3.95;;;;;;;;;;4943217;28;20658;-88
2023/02/17 20:41:32;;;;;;;7.15;4.88;;;;;;;;;;4979860;28;20046;-88
2023/02/17 20:44:01;;;;;;;6.97;4.07;;;;;;;;;;4978962;28;20445;-87
2023/02/17 20:46:29;;;;;;;5.05;4.32;;;;;;;;;;4958664;28;20046;-87
2023/02/17 20:48:56;;;;;;;4.28;3.22;;;;;;;;;;4944669;28;20050;-88
2023/02/17 20:51:24;;;;;;;4.97;3.95;;;;;;;;;;4960553;28;20517;-88
2023/02/17 20:53:52;;;;;;;5.43;4.47;;;;;;;;;;4980407;28;20046;-88
2023/02/17 20:56:21;;;;;;;7.07;3.70;;;;;;;;;;4979483;28;20042;-88
2023/02/17 20:58:51;;;;;;;4.88;4.03;;;;;;;;;;4979990;28;20058;-88
2023/02/17 21:01:18;;;;;;;4.30;3.38;;;;;;;;;;4965570;28;20050;-88
2023/02/17 21:03:46;;;;;;;4.53;4.00;;;;;;;;;;4978652;28;20552;-88
2023/02/17 21:06:20;;;;;;;5.00;3.88;;;;;;;;;;4960943;28;20093;-88
2023/02/17 21:08:50;;;;;;;4.68;4.18;;;;;;;;;;4964249;28;20169;-88
2023/02/17 21:11:17;;;;;;;5.47;3.90;;;;;;;;;;4983045;28;20058;-88
2023/02/17 21:13:45;;;;;;;5.88;5.15;;;;;;;;;;4974839;28;20065;-85
2023/02/17 21:16:15;;;;;;;4.18;3.47;;;;;;;;;;4987382;28;20034;-88
2023/02/17 21:18:43;;;;;;;5.35;3.78;;;;;;;;;;4954676;28;20061;-87
2023/02/17 21:21:12;;;;;;;4.72;3.90;;;;;;;;;;4991047;28;20042;-88
2023/02/17 21:23:40;;;;;;;4.97;3.90;;;;;;;;;;4976189;28;20433;-88
2023/02/17 21:26:11;;;;;;;7.72;3.97;;;;;;;;;;4977999;28;20614;-87
2023/02/17 21:28:38;;;;;;;4.57;4.15;;;;;;;;;;4975792;28;20096;-88
2023/02/17 21:31:06;;;;;;;5.38;4.38;;;;;;;;;;4982506;28;20049;-88
2023/02/17 21:33:40;;;;;;;4.47;3.92;;;;;;;;;;4976682;28;20054;-88
2023/02/17 21:36:08;;;;;;;5.15;3.90;;;;;;;;;;4978519;28;20400;-88
2023/02/17 21:38:36;;;;;;;5.47;3.47;;;;;;;;;;4977647;28;20533;-87
2023/02/17 21:41:05;;;;;;;5.50;3.58;;;;;;;;;;4978031;28;20058;-88
2023/02/17 21:46:29;;;;;;;5.78;4.53;;;;;;;;;;4917925;29;20062;-87
2023/02/17 21:49:01;;;;;;;6.55;4.07;;;;;;;;;;4961788;28;20046;-87
2023/02/17 21:51:29;;;;;;;5.35;3.83;;;;;;;;;;4977598;28;20051;-88
2023/02/17 21:53:58;;;;;;;4.70;3.70;;;;;;;;;;4985173;28;20142;-88
2023/02/17 21:56:25;;;;;;;6.20;5.32;;;;;;;;;;4990886;28;20053;-88
2023/02/17 21:58:54;;;;;;;4.63;3.78;;;;;;;;;;4969336;28;20046;-88
2023/02/17 22:01:23;;;;;;;4.85;3.22;;;;;;;;;;4983583;28;20417;-88
2023/02/17 22:03:50;;;;;;;5.10;4.00;;;;;;;;;;4972591;28;20049;-88
2023/02/17 22:06:23;;;;;;;4.78;4.05;;;;;;;;;;4970094;28;20055;-87
2023/02/17 22:08:53;;;;;;;5.40;4.28;;;;;;;;;;4981082;28;20049;-88
2023/02/17 22:11:24;;;;;;;5.82;3.35;;;;;;;;;;4978834;28;20069;-88
2023/02/17 22:13:56;;;;;;;5.70;3.75;;;;;;;;;;4956209;28;20058;-88
2023/02/17 22:16:26;;;;;;;4.43;4.03;;;;;;;;;;4971899;28;20062;-87
2023/02/17 22:18:56;;;;;;;5.10;4.13;;;;;;;;;;4975675;28;20046;-88
2023/02/17 22:21:24;;;;;;;5.97;3.75;;;;;;;;;;4979193;28;20047;-88
2023/02/17 22:23:52;;;;;;;5.10;3.13;;;;;;;;;;4958993;28;20065;-87
2023/02/17 22:26:23;;;;;;;5.03;3.80;;;;;;;;;;4943876;28;20405;-88
2023/02/17 22:28:51;;;;;;;4.90;3.00;;;;;;;;;;4961349;28;20053;-89
2023/02/17 22:31:23;;;;;;;4.22;3.63;;;;;;;;;;4980113;28;20055;-89
2023/02/17 22:33:52;;;;;;;4.35;3.20;;;;;;;;;;4960655;28;20050;-89
2023/02/17 22:36:22;;;;;;;5.22;4.07;;;;;;;;;;4943142;28;20050;-88
2023/02/17 22:38:51;;;;;;;3.85;2.92;;;;;;;;;;4961009;28;20054;-88
2023/02/17 22:41:21;;;;;;;4.88;3.30;;;;;;;;;;4948329;28;20054;-88
2023/02/17 22:43:51;;;;;;;4.40;3.55;;;;;;;;;;4988220;28;20054;-88
2023/02/17 22:46:20;;;;;;;5.57;3.65;;;;;;;;;;4986051;28;20050;-88
2023/02/17 22:48:49;;;;;;;3.72;2.63;;;;;;;;;;4986122;28;20042;-88
2023/02/17 22:51:19;;;;;;;3.78;3.28;;;;;;;;;;4984402;28;20051;-89
2023/02/17 22:53:47;;;;;;;3.78;2.95;;;;;;;;;;4991492;28;20054;-88
2023/02/17 22:56:18;;;;;;;4.07;2.88;;;;;;;;;;4986949;28;20057;-88
2023/02/17 22:58:45;;;;;;;3.83;3.13;;;;;;;;;;4972360;28;20402;-87
2023/02/17 23:01:14;;;;;;;4.22;3.13;;;;;;;;;;4987619;28;20053;-88
2023/02/17 23:03:42;;;;;;;4.40;2.90;;;;;;;;;;4976141;28;20050;-88
2023/02/17 23:06:12;;;;;;;4.75;3.97;;;;;;;;;;4974255;28;20062;-88
2023/02/17 23:08:40;;;;;;;3.92;3.28;;;;;;;;;;4989513;28;20080;-88
2023/02/17 23:11:09;;;;;;;3.42;2.85;;;;;;;;;;4958955;28;20062;-88
2023/02/17 23:13:38;;;;;;;4.45;3.75;;;;;;;;;;4961432;28;20065;-88
2023/02/17 23:16:06;;;;;;;4.85;4.20;;;;;;;;;;4971710;28;20058;-88
2023/02/17 23:18:34;;;;;;;4.57;3.55;;;;;;;;;;4962181;28;20069;-88
2023/02/17 23:21:07;;;;;;;4.38;2.88;;;;;;;;;;4979211;28;20421;-88
2023/02/17 23:23:34;;;;;;;4.82;3.35;;;;;;;;;;4996992;28;20050;-88
2023/02/17 23:26:01;;;;;;;3.85;3.55;;;;;;;;;;4955575;28;20042;-88
2023/02/17 23:28:29;;;;;;;4.65;3.58;;;;;;;;;;4976189;28;20046;-88
2023/02/17 23:30:57;;;;;;;4.95;3.50;;;;;;;;;;4975878;28;20061;-89
2023/02/17 23:33:27;;;;;;;6.15;2.80;;;;;;;;;;4974069;28;20063;-88
2023/02/17 23:35:55;;;;;;;5.55;4.20;;;;;;;;;;4987586;28;20053;-88
2023/02/17 23:38:24;;;;;;;5.43;4.18;;;;;;;;;;4961227;28;20063;-88
2023/02/17 23:40:51;;;;;;;5.05;3.70;;;;;;;;;;4960019;28;20053;-88
2023/02/17 23:43:21;;;;;;;3.75;3.25;;;;;;;;;;4976599;28;20059;-88
2023/02/17 23:45:49;;;;;;;4.70;3.78;;;;;;;;;;4995272;28;20050;-88
2023/02/17 23:48:20;;;;;;;3.22;2.92;;;;;;;;;;4978164;28;20065;-88
2023/02/17 23:50:55;;;;;;;4.75;3.78;;;;;;;;;;4974173;28;20031;-88
2023/02/17 23:53:22;;;;;;;6.13;3.45;;;;;;;;;;4981065;28;20049;-88
2023/02/17 23:55:50;;;;;;;6.78;3.90;;;;;;;;;;4971550;28;20051;-88
2023/02/17 23:58:17;;;;;;;4.82;4.20;;;;;;;;;;4975757;28;20061;-88
